sensor_id;sensor_type;location;lat;lon;timestamp;P1;durP1;ratioP1;P2;durP2;ratioP2
52984;SDS011;40499;47.830;19.026;2022-08-18T00:04:45;4.90;;;3.88;;
52984;SDS011;40499;47.830;19.026;2022-08-18T00:07:13;7.07;;;4.30;;
52984;SDS011;40499;47.830;19.026;2022-08-18T00:09:41;6.03;;;3.78;;
52984;SDS011;40499;47.830;19.026;2022-08-18T00:12:22;6.93;;;4.18;;
52984;SDS011;40499;47.830;19.026;2022-08-18T00:14:53;7.28;;;4.38;;
52984;SDS011;40499;47.830;19.026;2022-08-18T00:17:20;5.93;;;4.72;;
52984;SDS011;40499;47.830;19.026;2022-08-18T00:19:46;6.47;;;4.43;;
52984;SDS011;40499;47.830;19.026;2022-08-18T00:22:13;5.60;;;4.63;;
52984;SDS011;40499;47.830;19.026;2022-08-18T00:24:42;8.18;;;4.80;;
52984;SDS011;40499;47.830;19.026;2022-08-18T00:27:08;6.28;;;4.85;;
52984;SDS011;40499;47.830;19.026;2022-08-18T00:29:34;5.95;;;4.88;;
52984;SDS011;40499;47.830;19.026;2022-08-18T00:32:10;7.15;;;5.10;;
52984;SDS011;40499;47.830;19.026;2022-08-18T00:34:42;5.70;;;4.90;;
52984;SDS011;40499;47.830;19.026;2022-08-18T00:37:08;8.07;;;5.53;;
52984;SDS011;40499;47.830;19.026;2022-08-18T00:39:34;8.38;;;5.72;;
52984;SDS011;40499;47.830;19.026;2022-08-18T00:42:10;9.10;;;4.78;;
52984;SDS011;40499;47.830;19.026;2022-08-18T00:44:37;7.93;;;4.85;;
52984;SDS011;40499;47.830;19.026;2022-08-18T00:47:02;5.70;;;4.85;;
52984;SDS011;40499;47.830;19.026;2022-08-18T00:49:28;7.95;;;5.20;;
52984;SDS011;40499;47.830;19.026;2022-08-18T00:51:53;7.18;;;5.38;;
52984;SDS011;40499;47.830;19.026;2022-08-18T00:54:26;7.03;;;4.88;;
52984;SDS011;40499;47.830;19.026;2022-08-18T01:01:52;8.82;;;5.38;;
52984;SDS011;40499;47.830;19.026;2022-08-18T01:04:24;10.52;;;5.88;;
52984;SDS011;40499;47.830;19.026;2022-08-18T01:06:57;6.88;;;5.50;;
52984;SDS011;40499;47.830;19.026;2022-08-18T01:09:29;8.73;;;5.15;;
52984;SDS011;40499;47.830;19.026;2022-08-18T01:11:54;7.22;;;5.90;;
52984;SDS011;40499;47.830;19.026;2022-08-18T01:14:20;9.80;;;5.55;;
52984;SDS011;40499;47.830;19.026;2022-08-18T01:16:46;8.25;;;5.47;;
52984;SDS011;40499;47.830;19.026;2022-08-18T01:19:31;9.30;;;5.32;;
52984;SDS011;40499;47.830;19.026;2022-08-18T01:25:01;10.83;;;5.73;;
52984;SDS011;40499;47.830;19.026;2022-08-18T01:27:47;13.25;;;6.43;;
52984;SDS011;40499;47.830;19.026;2022-08-18T01:30:14;8.48;;;5.82;;
52984;SDS011;40499;47.830;19.026;2022-08-18T01:32:42;13.27;;;6.05;;
52984;SDS011;40499;47.830;19.026;2022-08-18T01:35:10;9.10;;;6.13;;
52984;SDS011;40499;47.830;19.026;2022-08-18T01:37:37;10.20;;;6.03;;
52984;SDS011;40499;47.830;19.026;2022-08-18T01:40:04;9.13;;;6.30;;
52984;SDS011;40499;47.830;19.026;2022-08-18T01:42:31;9.25;;;5.72;;
52984;SDS011;40499;47.830;19.026;2022-08-18T01:44:58;8.85;;;5.93;;
52984;SDS011;40499;47.830;19.026;2022-08-18T01:47:23;8.45;;;5.68;;
52984;SDS011;40499;47.830;19.026;2022-08-18T01:49:49;10.98;;;6.25;;
52984;SDS011;40499;47.830;19.026;2022-08-18T01:52:19;9.38;;;5.70;;
52984;SDS011;40499;47.830;19.026;2022-08-18T01:54:48;8.55;;;6.07;;
52984;SDS011;40499;47.830;19.026;2022-08-18T01:57:15;10.30;;;6.25;;
52984;SDS011;40499;47.830;19.026;2022-08-18T01:59:41;9.07;;;6.13;;
52984;SDS011;40499;47.830;19.026;2022-08-18T02:02:07;7.28;;;5.97;;
52984;SDS011;40499;47.830;19.026;2022-08-18T02:04:36;12.75;;;6.55;;
52984;SDS011;40499;47.830;19.026;2022-08-18T02:07:03;11.15;;;6.30;;
52984;SDS011;40499;47.830;19.026;2022-08-18T02:09:31;10.90;;;6.68;;
52984;SDS011;40499;47.830;19.026;2022-08-18T02:11:57;11.65;;;6.28;;
52984;SDS011;40499;47.830;19.026;2022-08-18T02:14:23;12.93;;;6.68;;
52984;SDS011;40499;47.830;19.026;2022-08-18T02:16:49;13.40;;;7.18;;
52984;SDS011;40499;47.830;19.026;2022-08-18T02:19:14;13.63;;;6.25;;
52984;SDS011;40499;47.830;19.026;2022-08-18T02:21:40;9.38;;;6.72;;
52984;SDS011;40499;47.830;19.026;2022-08-18T02:24:05;10.30;;;7.28;;
52984;SDS011;40499;47.830;19.026;2022-08-18T02:26:31;10.20;;;6.65;;
52984;SDS011;40499;47.830;19.026;2022-08-18T02:28:56;6.05;;;5.35;;
52984;SDS011;40499;47.830;19.026;2022-08-18T02:31:22;11.30;;;6.60;;
52984;SDS011;40499;47.830;19.026;2022-08-18T02:33:49;9.95;;;6.20;;
52984;SDS011;40499;47.830;19.026;2022-08-18T02:36:15;6.38;;;5.78;;
52984;SDS011;40499;47.830;19.026;2022-08-18T02:38:41;11.88;;;6.70;;
52984;SDS011;40499;47.830;19.026;2022-08-18T02:41:08;12.07;;;7.20;;
52984;SDS011;40499;47.830;19.026;2022-08-18T02:43:35;8.40;;;6.70;;
52984;SDS011;40499;47.830;19.026;2022-08-18T02:46:02;13.25;;;6.97;;
52984;SDS011;40499;47.830;19.026;2022-08-18T02:48:29;15.13;;;7.35;;
52984;SDS011;40499;47.830;19.026;2022-08-18T02:50:59;8.05;;;6.22;;
52984;SDS011;40499;47.830;19.026;2022-08-18T02:53:33;10.32;;;7.07;;
52984;SDS011;40499;47.830;19.026;2022-08-18T02:56:16;10.00;;;6.60;;
52984;SDS011;40499;47.830;19.026;2022-08-18T02:58:47;11.18;;;6.95;;
52984;SDS011;40499;47.830;19.026;2022-08-18T03:01:14;10.95;;;7.28;;
52984;SDS011;40499;47.830;19.026;2022-08-18T03:03:40;21.35;;;7.65;;
52984;SDS011;40499;47.830;19.026;2022-08-18T03:06:05;28.30;;;8.30;;
52984;SDS011;40499;47.830;19.026;2022-08-18T03:08:31;14.23;;;7.78;;
52984;SDS011;40499;47.830;19.026;2022-08-18T03:10:57;14.13;;;7.13;;
52984;SDS011;40499;47.830;19.026;2022-08-18T03:13:22;14.10;;;7.53;;
52984;SDS011;40499;47.830;19.026;2022-08-18T03:15:48;12.73;;;7.18;;
52984;SDS011;40499;47.830;19.026;2022-08-18T03:18:13;15.32;;;7.32;;
52984;SDS011;40499;47.830;19.026;2022-08-18T03:20:39;13.20;;;6.82;;
52984;SDS011;40499;47.830;19.026;2022-08-18T03:23:08;12.20;;;7.07;;
52984;SDS011;40499;47.830;19.026;2022-08-18T03:25:33;11.18;;;7.30;;
52984;SDS011;40499;47.830;19.026;2022-08-18T03:28:00;12.05;;;7.53;;
52984;SDS011;40499;47.830;19.026;2022-08-18T03:30:27;30.42;;;8.77;;
52984;SDS011;40499;47.830;19.026;2022-08-18T03:32:52;8.77;;;6.82;;
52984;SDS011;40499;47.830;19.026;2022-08-18T03:35:18;9.52;;;6.68;;
52984;SDS011;40499;47.830;19.026;2022-08-18T03:37:43;9.02;;;7.13;;
52984;SDS011;40499;47.830;19.026;2022-08-18T03:40:08;12.75;;;7.10;;
52984;SDS011;40499;47.830;19.026;2022-08-18T03:42:37;9.80;;;6.93;;
52984;SDS011;40499;47.830;19.026;2022-08-18T03:45:03;19.80;;;7.90;;
52984;SDS011;40499;47.830;19.026;2022-08-18T03:47:29;10.68;;;7.05;;
52984;SDS011;40499;47.830;19.026;2022-08-18T03:49:56;11.60;;;7.22;;
52984;SDS011;40499;47.830;19.026;2022-08-18T03:52:23;13.30;;;6.47;;
52984;SDS011;40499;47.830;19.026;2022-08-18T03:54:48;12.85;;;6.95;;
52984;SDS011;40499;47.830;19.026;2022-08-18T03:57:14;13.13;;;7.10;;
52984;SDS011;40499;47.830;19.026;2022-08-18T03:59:39;10.38;;;7.57;;
52984;SDS011;40499;47.830;19.026;2022-08-18T04:02:09;12.30;;;7.00;;
52984;SDS011;40499;47.830;19.026;2022-08-18T04:04:35;11.07;;;7.22;;
52984;SDS011;40499;47.830;19.026;2022-08-18T04:07:04;10.75;;;7.03;;
52984;SDS011;40499;47.830;19.026;2022-08-18T04:09:33;12.20;;;7.00;;
52984;SDS011;40499;47.830;19.026;2022-08-18T04:12:07;10.45;;;6.72;;
52984;SDS011;40499;47.830;19.026;2022-08-18T04:14:39;10.38;;;7.57;;
52984;SDS011;40499;47.830;19.026;2022-08-18T04:17:06;11.02;;;7.40;;
52984;SDS011;40499;47.830;19.026;2022-08-18T04:19:32;9.02;;;7.18;;
52984;SDS011;40499;47.830;19.026;2022-08-18T04:21:58;9.20;;;7.03;;
52984;SDS011;40499;47.830;19.026;2022-08-18T04:24:26;9.68;;;6.78;;
52984;SDS011;40499;47.830;19.026;2022-08-18T04:26:53;13.18;;;6.85;;
52984;SDS011;40499;47.830;19.026;2022-08-18T04:29:19;10.20;;;6.43;;
52984;SDS011;40499;47.830;19.026;2022-08-18T04:31:46;11.50;;;7.43;;
52984;SDS011;40499;47.830;19.026;2022-08-18T04:34:13;10.48;;;6.88;;
52984;SDS011;40499;47.830;19.026;2022-08-18T04:36:39;8.80;;;6.53;;
52984;SDS011;40499;47.830;19.026;2022-08-18T04:39:06;10.20;;;7.28;;
52984;SDS011;40499;47.830;19.026;2022-08-18T04:41:33;12.27;;;7.30;;
52984;SDS011;40499;47.830;19.026;2022-08-18T04:44:02;10.98;;;7.78;;
52984;SDS011;40499;47.830;19.026;2022-08-18T04:46:29;10.07;;;7.20;;
52984;SDS011;40499;47.830;19.026;2022-08-18T04:49:00;11.82;;;7.25;;
52984;SDS011;40499;47.830;19.026;2022-08-18T04:51:28;7.85;;;6.53;;
52984;SDS011;40499;47.830;19.026;2022-08-18T04:53:54;10.43;;;7.45;;
52984;SDS011;40499;47.830;19.026;2022-08-18T04:58:56;9.50;;;6.85;;
52984;SDS011;40499;47.830;19.026;2022-08-18T05:01:28;11.73;;;6.75;;
52984;SDS011;40499;47.830;19.026;2022-08-18T05:03:55;8.13;;;6.72;;
52984;SDS011;40499;47.830;19.026;2022-08-18T05:06:23;14.25;;;7.28;;
52984;SDS011;40499;47.830;19.026;2022-08-18T05:08:52;8.55;;;6.40;;
52984;SDS011;40499;47.830;19.026;2022-08-18T05:11:22;9.68;;;6.68;;
52984;SDS011;40499;47.830;19.026;2022-08-18T05:13:49;10.23;;;6.60;;
52984;SDS011;40499;47.830;19.026;2022-08-18T05:16:17;8.90;;;6.72;;
52984;SDS011;40499;47.830;19.026;2022-08-18T05:18:42;10.93;;;6.72;;
52984;SDS011;40499;47.830;19.026;2022-08-18T05:21:08;8.38;;;7.25;;
52984;SDS011;40499;47.830;19.026;2022-08-18T05:23:40;46.80;;;8.57;;
52984;SDS011;40499;47.830;19.026;2022-08-18T05:26:07;24.48;;;7.63;;
52984;SDS011;40499;47.830;19.026;2022-08-18T05:28:33;13.18;;;7.43;;
52984;SDS011;40499;47.830;19.026;2022-08-18T05:31:08;11.98;;;7.10;;
52984;SDS011;40499;47.830;19.026;2022-08-18T05:33:40;9.70;;;6.90;;
52984;SDS011;40499;47.830;19.026;2022-08-18T05:36:16;11.63;;;7.10;;
52984;SDS011;40499;47.830;19.026;2022-08-18T05:41:31;11.10;;;7.50;;
52984;SDS011;40499;47.830;19.026;2022-08-18T05:44:00;10.48;;;7.15;;
52984;SDS011;40499;47.830;19.026;2022-08-18T05:46:37;10.15;;;7.40;;
52984;SDS011;40499;47.830;19.026;2022-08-18T05:49:09;10.32;;;6.85;;
52984;SDS011;40499;47.830;19.026;2022-08-18T05:51:41;9.25;;;6.50;;
52984;SDS011;40499;47.830;19.026;2022-08-18T05:54:09;7.60;;;6.30;;
52984;SDS011;40499;47.830;19.026;2022-08-18T05:56:56;8.98;;;6.78;;
52984;SDS011;40499;47.830;19.026;2022-08-18T05:59:25;9.32;;;6.85;;
52984;SDS011;40499;47.830;19.026;2022-08-18T06:07:40;10.48;;;6.43;;
52984;SDS011;40499;47.830;19.026;2022-08-18T06:10:09;10.52;;;6.40;;
52984;SDS011;40499;47.830;19.026;2022-08-18T06:12:38;9.73;;;6.38;;
52984;SDS011;40499;47.830;19.026;2022-08-18T06:25:39;9.50;;;6.47;;
52984;SDS011;40499;47.830;19.026;2022-08-18T06:31:25;10.90;;;6.60;;
52984;SDS011;40499;47.830;19.026;2022-08-18T06:37:06;12.80;;;6.93;;
52984;SDS011;40499;47.830;19.026;2022-08-18T06:39:44;10.70;;;7.35;;
52984;SDS011;40499;47.830;19.026;2022-08-18T06:42:13;10.30;;;6.40;;
52984;SDS011;40499;47.830;19.026;2022-08-18T06:44:43;11.93;;;6.88;;
52984;SDS011;40499;47.830;19.026;2022-08-18T06:50:10;10.93;;;6.38;;
52984;SDS011;40499;47.830;19.026;2022-08-18T06:53:03;11.02;;;6.80;;
52984;SDS011;40499;47.830;19.026;2022-08-18T06:55:41;14.43;;;7.43;;
52984;SDS011;40499;47.830;19.026;2022-08-18T07:00:41;13.65;;;6.93;;
52984;SDS011;40499;47.830;19.026;2022-08-18T07:03:19;13.13;;;6.45;;
52984;SDS011;40499;47.830;19.026;2022-08-18T07:06:00;11.70;;;6.28;;
52984;SDS011;40499;47.830;19.026;2022-08-18T07:13:47;14.45;;;7.18;;
52984;SDS011;40499;47.830;19.026;2022-08-18T07:16:19;10.98;;;5.85;;
52984;SDS011;40499;47.830;19.026;2022-08-18T07:18:49;16.55;;;7.05;;
52984;SDS011;40499;47.830;19.026;2022-08-18T07:21:24;10.13;;;6.90;;
52984;SDS011;40499;47.830;19.026;2022-08-18T07:29:31;14.70;;;6.80;;
52984;SDS011;40499;47.830;19.026;2022-08-18T07:32:18;16.15;;;7.32;;
52984;SDS011;40499;47.830;19.026;2022-08-18T07:34:49;12.77;;;6.40;;
52984;SDS011;40499;47.830;19.026;2022-08-18T07:37:30;14.20;;;6.60;;
52984;SDS011;40499;47.830;19.026;2022-08-18T07:40:04;9.80;;;6.75;;
52984;SDS011;40499;47.830;19.026;2022-08-18T07:42:43;9.48;;;6.10;;
52984;SDS011;40499;47.830;19.026;2022-08-18T07:45:32;11.52;;;6.55;;
52984;SDS011;40499;47.830;19.026;2022-08-18T07:48:12;8.50;;;6.22;;
52984;SDS011;40499;47.830;19.026;2022-08-18T07:50:59;8.73;;;6.10;;
52984;SDS011;40499;47.830;19.026;2022-08-18T07:59:02;11.60;;;6.63;;
52984;SDS011;40499;47.830;19.026;2022-08-18T08:01:33;11.07;;;5.95;;
52984;SDS011;40499;47.830;19.026;2022-08-18T08:04:27;10.43;;;6.47;;
52984;SDS011;40499;47.830;19.026;2022-08-18T08:07:16;12.93;;;5.82;;
52984;SDS011;40499;47.830;19.026;2022-08-18T08:21:33;7.20;;;5.55;;
52984;SDS011;40499;47.830;19.026;2022-08-18T08:24:15;10.85;;;6.30;;
52984;SDS011;40499;47.830;19.026;2022-08-18T08:26:57;11.75;;;6.10;;
52984;SDS011;40499;47.830;19.026;2022-08-18T08:29:37;13.88;;;5.35;;
52984;SDS011;40499;47.830;19.026;2022-08-18T08:32:11;9.60;;;5.63;;
52984;SDS011;40499;47.830;19.026;2022-08-18T08:35:00;9.68;;;5.32;;
52984;SDS011;40499;47.830;19.026;2022-08-18T08:43:33;10.00;;;5.10;;
52984;SDS011;40499;47.830;19.026;2022-08-18T08:52:02;7.03;;;5.38;;
52984;SDS011;40499;47.830;19.026;2022-08-18T08:54:49;14.85;;;5.75;;
52984;SDS011;40499;47.830;19.026;2022-08-18T08:57:49;10.65;;;5.00;;
52984;SDS011;40499;47.830;19.026;2022-08-18T09:00:22;11.88;;;5.13;;
52984;SDS011;40499;47.830;19.026;2022-08-18T09:14:20;8.85;;;5.57;;
52984;SDS011;40499;47.830;19.026;2022-08-18T09:20:00;12.55;;;5.05;;
52984;SDS011;40499;47.830;19.026;2022-08-18T09:25:42;6.75;;;5.22;;
52984;SDS011;40499;47.830;19.026;2022-08-18T09:39:17;10.30;;;5.03;;
52984;SDS011;40499;47.830;19.026;2022-08-18T09:42:08;14.50;;;5.10;;
52984;SDS011;40499;47.830;19.026;2022-08-18T10:02:09;12.32;;;4.82;;
52984;SDS011;40499;47.830;19.026;2022-08-18T10:04:50;8.85;;;5.00;;
52984;SDS011;40499;47.830;19.026;2022-08-18T10:21:26;7.53;;;4.53;;
52984;SDS011;40499;47.830;19.026;2022-08-18T10:29:55;10.10;;;4.60;;
52984;SDS011;40499;47.830;19.026;2022-08-18T10:39:45;7.20;;;4.07;;
52984;SDS011;40499;47.830;19.026;2022-08-18T10:42:18;9.02;;;4.00;;
52984;SDS011;40499;47.830;19.026;2022-08-18T10:44:49;6.95;;;4.20;;
52984;SDS011;40499;47.830;19.026;2022-08-18T10:47:26;7.78;;;4.28;;
52984;SDS011;40499;47.830;19.026;2022-08-18T10:49:54;7.63;;;4.07;;
52984;SDS011;40499;47.830;19.026;2022-08-18T10:57:34;8.50;;;4.07;;
52984;SDS011;40499;47.830;19.026;2022-08-18T11:00:20;9.60;;;4.20;;
52984;SDS011;40499;47.830;19.026;2022-08-18T11:02:54;4.45;;;3.60;;
52984;SDS011;40499;47.830;19.026;2022-08-18T11:05:32;5.22;;;4.30;;
52984;SDS011;40499;47.830;19.026;2022-08-18T11:07:59;9.57;;;3.78;;
52984;SDS011;40499;47.830;19.026;2022-08-18T11:10:35;5.78;;;4.05;;
52984;SDS011;40499;47.830;19.026;2022-08-18T11:16:09;7.53;;;3.92;;
52984;SDS011;40499;47.830;19.026;2022-08-18T11:18:48;4.15;;;3.42;;
52984;SDS011;40499;47.830;19.026;2022-08-18T11:26:40;9.75;;;3.33;;
52984;SDS011;40499;47.830;19.026;2022-08-18T11:29:38;7.40;;;3.85;;
52984;SDS011;40499;47.830;19.026;2022-08-18T11:37:26;5.05;;;3.35;;
52984;SDS011;40499;47.830;19.026;2022-08-18T11:39:59;6.72;;;3.30;;
52984;SDS011;40499;47.830;19.026;2022-08-18T11:42:31;7.93;;;3.20;;
52984;SDS011;40499;47.830;19.026;2022-08-18T11:45:18;8.48;;;3.50;;
52984;SDS011;40499;47.830;19.026;2022-08-18T11:53:23;6.95;;;3.20;;
52984;SDS011;40499;47.830;19.026;2022-08-18T11:58:58;7.57;;;3.17;;
52984;SDS011;40499;47.830;19.026;2022-08-18T12:06:56;6.60;;;3.40;;
52984;SDS011;40499;47.830;19.026;2022-08-18T12:17:35;6.95;;;3.00;;
52984;SDS011;40499;47.830;19.026;2022-08-18T12:20:01;5.28;;;3.15;;
52984;SDS011;40499;47.830;19.026;2022-08-18T12:22:29;6.07;;;3.30;;
52984;SDS011;40499;47.830;19.026;2022-08-18T12:24:59;5.20;;;3.03;;
52984;SDS011;40499;47.830;19.026;2022-08-18T12:27:26;7.88;;;3.88;;
52984;SDS011;40499;47.830;19.026;2022-08-18T12:29:53;8.95;;;3.30;;
52984;SDS011;40499;47.830;19.026;2022-08-18T12:32:21;9.43;;;3.70;;
52984;SDS011;40499;47.830;19.026;2022-08-18T12:34:48;8.90;;;3.97;;
52984;SDS011;40499;47.830;19.026;2022-08-18T12:37:15;7.40;;;3.30;;
52984;SDS011;40499;47.830;19.026;2022-08-18T12:39:42;9.13;;;3.28;;
52984;SDS011;40499;47.830;19.026;2022-08-18T12:42:08;6.60;;;3.13;;
52984;SDS011;40499;47.830;19.026;2022-08-18T12:44:34;4.82;;;3.03;;
52984;SDS011;40499;47.830;19.026;2022-08-18T12:47:05;4.18;;;2.60;;
52984;SDS011;40499;47.830;19.026;2022-08-18T12:49:36;4.95;;;3.17;;
52984;SDS011;40499;47.830;19.026;2022-08-18T12:52:01;5.75;;;3.00;;
52984;SDS011;40499;47.830;19.026;2022-08-18T12:54:27;5.65;;;2.92;;
52984;SDS011;40499;47.830;19.026;2022-08-18T12:56:54;6.18;;;2.60;;
52984;SDS011;40499;47.830;19.026;2022-08-18T12:59:21;5.55;;;2.92;;
52984;SDS011;40499;47.830;19.026;2022-08-18T13:01:47;3.83;;;3.00;;
52984;SDS011;40499;47.830;19.026;2022-08-18T13:04:13;9.70;;;3.00;;
52984;SDS011;40499;47.830;19.026;2022-08-18T13:06:40;7.90;;;2.97;;
52984;SDS011;40499;47.830;19.026;2022-08-18T13:09:10;8.07;;;2.90;;
52984;SDS011;40499;47.830;19.026;2022-08-18T13:11:36;4.30;;;2.83;;
52984;SDS011;40499;47.830;19.026;2022-08-18T13:14:02;6.13;;;2.42;;
52984;SDS011;40499;47.830;19.026;2022-08-18T13:16:28;9.18;;;3.22;;
52984;SDS011;40499;47.830;19.026;2022-08-18T13:18:58;9.90;;;3.30;;
52984;SDS011;40499;47.830;19.026;2022-08-18T13:21:23;7.53;;;2.70;;
52984;SDS011;40499;47.830;19.026;2022-08-18T13:23:49;4.03;;;2.88;;
52984;SDS011;40499;47.830;19.026;2022-08-18T13:26:20;5.88;;;3.08;;
52984;SDS011;40499;47.830;19.026;2022-08-18T13:28:50;4.35;;;3.03;;
52984;SDS011;40499;47.830;19.026;2022-08-18T13:31:15;5.50;;;2.58;;
52984;SDS011;40499;47.830;19.026;2022-08-18T13:33:40;3.85;;;2.50;;
52984;SDS011;40499;47.830;19.026;2022-08-18T13:36:06;4.97;;;2.88;;
52984;SDS011;40499;47.830;19.026;2022-08-18T13:38:32;4.38;;;2.70;;
52984;SDS011;40499;47.830;19.026;2022-08-18T13:40:58;3.90;;;2.40;;
52984;SDS011;40499;47.830;19.026;2022-08-18T13:43:29;6.68;;;3.08;;
52984;SDS011;40499;47.830;19.026;2022-08-18T13:45:59;8.43;;;2.45;;
52984;SDS011;40499;47.830;19.026;2022-08-18T13:48:26;5.10;;;2.90;;
52984;SDS011;40499;47.830;19.026;2022-08-18T13:50:53;5.13;;;2.58;;
52984;SDS011;40499;47.830;19.026;2022-08-18T13:53:19;3.90;;;2.42;;
52984;SDS011;40499;47.830;19.026;2022-08-18T13:55:45;5.13;;;2.22;;
52984;SDS011;40499;47.830;19.026;2022-08-18T13:58:11;8.98;;;2.90;;
52984;SDS011;40499;47.830;19.026;2022-08-18T14:00:37;5.72;;;2.83;;
52984;SDS011;40499;47.830;19.026;2022-08-18T14:03:04;5.55;;;2.70;;
52984;SDS011;40499;47.830;19.026;2022-08-18T14:05:31;8.20;;;3.17;;
52984;SDS011;40499;47.830;19.026;2022-08-18T14:07:57;6.60;;;2.88;;
52984;SDS011;40499;47.830;19.026;2022-08-18T14:10:24;5.28;;;2.50;;
52984;SDS011;40499;47.830;19.026;2022-08-18T14:12:50;7.20;;;2.72;;
52984;SDS011;40499;47.830;19.026;2022-08-18T14:15:18;6.57;;;2.67;;
52984;SDS011;40499;47.830;19.026;2022-08-18T14:17:44;6.50;;;2.70;;
52984;SDS011;40499;47.830;19.026;2022-08-18T14:20:10;3.80;;;2.75;;
52984;SDS011;40499;47.830;19.026;2022-08-18T14:22:55;6.35;;;2.75;;
52984;SDS011;40499;47.830;19.026;2022-08-18T14:25:42;7.95;;;2.25;;
52984;SDS011;40499;47.830;19.026;2022-08-18T14:28:29;3.95;;;2.60;;
52984;SDS011;40499;47.830;19.026;2022-08-18T14:30:57;2.85;;;2.40;;
52984;SDS011;40499;47.830;19.026;2022-08-18T14:33:24;4.63;;;2.22;;
52984;SDS011;40499;47.830;19.026;2022-08-18T14:35:51;4.57;;;2.50;;
52984;SDS011;40499;47.830;19.026;2022-08-18T14:38:17;5.68;;;2.70;;
52984;SDS011;40499;47.830;19.026;2022-08-18T14:40:43;5.20;;;2.25;;
52984;SDS011;40499;47.830;19.026;2022-08-18T14:43:10;4.45;;;2.30;;
52984;SDS011;40499;47.830;19.026;2022-08-18T14:45:37;5.30;;;2.30;;
52984;SDS011;40499;47.830;19.026;2022-08-18T14:48:04;2.70;;;2.40;;
52984;SDS011;40499;47.830;19.026;2022-08-18T14:50:30;6.85;;;2.28;;
52984;SDS011;40499;47.830;19.026;2022-08-18T14:52:56;5.72;;;2.55;;
52984;SDS011;40499;47.830;19.026;2022-08-18T14:55:22;4.68;;;2.20;;
52984;SDS011;40499;47.830;19.026;2022-08-18T14:57:47;2.63;;;2.30;;
52984;SDS011;40499;47.830;19.026;2022-08-18T15:00:15;5.90;;;2.75;;
52984;SDS011;40499;47.830;19.026;2022-08-18T15:02:42;6.28;;;2.63;;
52984;SDS011;40499;47.830;19.026;2022-08-18T15:05:10;9.50;;;2.47;;
52984;SDS011;40499;47.830;19.026;2022-08-18T15:07:38;6.72;;;2.67;;
52984;SDS011;40499;47.830;19.026;2022-08-18T15:10:04;5.93;;;2.50;;
52984;SDS011;40499;47.830;19.026;2022-08-18T15:12:32;6.78;;;2.75;;
52984;SDS011;40499;47.830;19.026;2022-08-18T15:14:57;5.13;;;2.13;;
52984;SDS011;40499;47.830;19.026;2022-08-18T15:17:24;7.47;;;2.53;;
52984;SDS011;40499;47.830;19.026;2022-08-18T15:19:52;4.60;;;2.60;;
52984;SDS011;40499;47.830;19.026;2022-08-18T15:22:18;4.45;;;2.53;;
52984;SDS011;40499;47.830;19.026;2022-08-18T15:25:03;3.20;;;2.53;;
52984;SDS011;40499;47.830;19.026;2022-08-18T15:27:48;5.45;;;2.40;;
52984;SDS011;40499;47.830;19.026;2022-08-18T15:30:15;5.57;;;2.47;;
52984;SDS011;40499;47.830;19.026;2022-08-18T15:32:41;3.28;;;2.28;;
52984;SDS011;40499;47.830;19.026;2022-08-18T15:35:09;9.07;;;3.05;;
52984;SDS011;40499;47.830;19.026;2022-08-18T15:37:36;5.13;;;2.90;;
52984;SDS011;40499;47.830;19.026;2022-08-18T15:40:11;6.72;;;2.90;;
52984;SDS011;40499;47.830;19.026;2022-08-18T15:42:43;4.68;;;2.50;;
52984;SDS011;40499;47.830;19.026;2022-08-18T15:45:10;6.72;;;2.75;;
52984;SDS011;40499;47.830;19.026;2022-08-18T15:47:37;5.95;;;3.10;;
52984;SDS011;40499;47.830;19.026;2022-08-18T15:50:04;3.47;;;2.58;;
52984;SDS011;40499;47.830;19.026;2022-08-18T15:52:30;5.38;;;2.50;;
52984;SDS011;40499;47.830;19.026;2022-08-18T15:54:55;7.93;;;2.70;;
52984;SDS011;40499;47.830;19.026;2022-08-18T15:57:25;4.88;;;2.42;;
52984;SDS011;40499;47.830;19.026;2022-08-18T15:59:51;7.78;;;2.83;;
52984;SDS011;40499;47.830;19.026;2022-08-18T16:02:16;8.00;;;2.80;;
52984;SDS011;40499;47.830;19.026;2022-08-18T16:04:42;9.05;;;2.75;;
52984;SDS011;40499;47.830;19.026;2022-08-18T16:07:07;5.63;;;2.55;;
52984;SDS011;40499;47.830;19.026;2022-08-18T16:09:33;4.78;;;2.60;;
52984;SDS011;40499;47.830;19.026;2022-08-18T16:11:59;7.80;;;2.75;;
52984;SDS011;40499;47.830;19.026;2022-08-18T16:14:24;11.95;;;2.70;;
52984;SDS011;40499;47.830;19.026;2022-08-18T16:16:50;24.05;;;3.10;;
52984;SDS011;40499;47.830;19.026;2022-08-18T16:19:15;33.83;;;4.07;;
52984;SDS011;40499;47.830;19.026;2022-08-18T16:21:40;15.60;;;3.03;;
52984;SDS011;40499;47.830;19.026;2022-08-18T16:24:06;10.07;;;2.60;;
52984;SDS011;40499;47.830;19.026;2022-08-18T16:26:32;173.38;;;12.70;;
52984;SDS011;40499;47.830;19.026;2022-08-18T16:28:57;15.43;;;2.80;;
52984;SDS011;40499;47.830;19.026;2022-08-18T16:31:23;74.20;;;5.93;;
52984;SDS011;40499;47.830;19.026;2022-08-18T16:33:50;69.72;;;5.50;;
52984;SDS011;40499;47.830;19.026;2022-08-18T16:36:19;9.55;;;2.63;;
52984;SDS011;40499;47.830;19.026;2022-08-18T16:38:46;9.48;;;3.60;;
52984;SDS011;40499;47.830;19.026;2022-08-18T16:41:13;7.80;;;2.80;;
52984;SDS011;40499;47.830;19.026;2022-08-18T16:43:40;5.35;;;2.88;;
52984;SDS011;40499;47.830;19.026;2022-08-18T16:46:08;6.32;;;2.95;;
52984;SDS011;40499;47.830;19.026;2022-08-18T16:48:36;10.80;;;2.95;;
52984;SDS011;40499;47.830;19.026;2022-08-18T16:51:01;19.17;;;3.28;;
52984;SDS011;40499;47.830;19.026;2022-08-18T16:53:27;10.55;;;3.00;;
52984;SDS011;40499;47.830;19.026;2022-08-18T16:55:52;8.65;;;2.90;;
52984;SDS011;40499;47.830;19.026;2022-08-18T16:58:18;8.10;;;3.10;;
52984;SDS011;40499;47.830;19.026;2022-08-18T17:01:02;8.35;;;2.80;;
52984;SDS011;40499;47.830;19.026;2022-08-18T17:03:45;6.25;;;3.17;;
52984;SDS011;40499;47.830;19.026;2022-08-18T17:06:29;4.95;;;2.58;;
52984;SDS011;40499;47.830;19.026;2022-08-18T17:08:55;8.10;;;2.75;;
52984;SDS011;40499;47.830;19.026;2022-08-18T17:11:22;318.30;;;22.17;;
52984;SDS011;40499;47.830;19.026;2022-08-18T17:13:51;14.40;;;3.05;;
52984;SDS011;40499;47.830;19.026;2022-08-18T17:16:18;10.15;;;3.25;;
52984;SDS011;40499;47.830;19.026;2022-08-18T17:18:45;18.45;;;3.72;;
52984;SDS011;40499;47.830;19.026;2022-08-18T17:21:13;9.02;;;3.10;;
52984;SDS011;40499;47.830;19.026;2022-08-18T17:23:41;5.82;;;2.97;;
52984;SDS011;40499;47.830;19.026;2022-08-18T17:26:08;12.13;;;3.78;;
52984;SDS011;40499;47.830;19.026;2022-08-18T17:28:43;11.07;;;3.40;;
52984;SDS011;40499;47.830;19.026;2022-08-18T17:31:11;14.85;;;3.80;;
52984;SDS011;40499;47.830;19.026;2022-08-18T17:33:38;10.32;;;3.10;;
52984;SDS011;40499;47.830;19.026;2022-08-18T17:36:07;9.27;;;3.72;;
52984;SDS011;40499;47.830;19.026;2022-08-18T17:38:43;10.20;;;3.88;;
52984;SDS011;40499;47.830;19.026;2022-08-18T17:41:22;5.15;;;2.80;;
52984;SDS011;40499;47.830;19.026;2022-08-18T17:43:49;9.18;;;3.65;;
52984;SDS011;40499;47.830;19.026;2022-08-18T17:46:20;7.78;;;3.13;;
52984;SDS011;40499;47.830;19.026;2022-08-18T17:48:54;7.25;;;3.47;;
52984;SDS011;40499;47.830;19.026;2022-08-18T17:51:25;61.85;;;6.38;;
52984;SDS011;40499;47.830;19.026;2022-08-18T17:53:59;15.48;;;3.42;;
52984;SDS011;40499;47.830;19.026;2022-08-18T17:56:34;5.50;;;3.13;;
52984;SDS011;40499;47.830;19.026;2022-08-18T18:01:35;6.70;;;3.40;;
52984;SDS011;40499;47.830;19.026;2022-08-18T18:04:01;7.03;;;3.15;;
52984;SDS011;40499;47.830;19.026;2022-08-18T18:06:35;37.10;;;6.03;;